Time;durP1;ratioP1;P1;durP2;ratioP2;P2;SDS_P1;SDS_P2;PMS_P1;PMS_P2;Temp;Humidity;BMP_temperature;BMP_pressure;BME280_temperature;BME280_humidity;BME280_pressure;Samples;Min_cycle;Max_cycle;Signal;HPM_P1;HPM_P2
2022/10/11 00:01:58;;;;;;;8.25;1.58;;;8.40;99.90;;;;;;5059499;28;20052;-58
2022/10/11 00:04:24;;;;;;;10.30;1.92;;;8.30;99.90;;;;;;5058254;28;20470;-58
2022/10/11 00:06:50;;;;;;;13.90;2.03;;;8.30;99.90;;;;;;5059186;28;20057;-58
2022/10/11 00:09:16;;;;;;;13.43;2.05;;;8.20;99.90;;;;;;5058126;28;20056;-58
2022/10/11 00:11:42;;;;;;;13.63;1.85;;;8.20;99.90;;;;;;5059417;28;20037;-58
2022/10/11 00:14:07;;;;;;;14.13;1.88;;;8.20;99.90;;;;;;5058456;28;20098;-58
2022/10/11 00:16:34;;;;;;;8.60;1.55;;;8.10;99.90;;;;;;5058602;28;20084;-59
2022/10/11 00:18:59;;;;;;;11.48;1.77;;;8.10;99.90;;;;;;5059196;28;20043;-58
2022/10/11 00:21:26;;;;;;;11.50;2.28;;;7.90;99.90;;;;;;5058494;28;20065;-58
2022/10/11 00:23:51;;;;;;;10.02;1.52;;;8.10;99.90;;;;;;5059028;28;20402;-58
2022/10/11 00:26:17;;;;;;;12.20;2.67;;;8.00;99.90;;;;;;5058324;28;20051;-58
2022/10/11 00:28:42;;;;;;;14.07;2.45;;;7.90;99.90;;;;;;5059270;28;20136;-59
2022/10/11 00:31:12;;;;;;;12.68;1.70;;;7.90;99.90;;;;;;5058386;28;20044;-57
2022/10/11 00:33:38;;;;;;;15.00;1.80;;;7.80;99.90;;;;;;5058621;28;20045;-57
2022/10/11 00:36:04;;;;;;;15.27;2.22;;;7.80;99.90;;;;;;5059020;28;20080;-58
2022/10/11 00:38:30;;;;;;;15.15;2.00;;;7.90;99.90;;;;;;5058362;28;20052;-56
2022/10/11 00:40:56;;;;;;;15.07;2.45;;;7.80;99.90;;;;;;5076626;28;20090;-58
2022/10/11 00:43:25;;;;;;;8.35;1.83;;;7.90;99.90;;;;;;5078210;28;20036;-58
2022/10/11 00:45:57;;;;;;;12.90;2.45;;;7.90;99.90;;;;;;5077649;28;20071;-56
2022/10/11 00:48:37;;;;;;;11.63;2.00;;;7.90;99.90;;;;;;5079054;28;20050;-58
2022/10/11 00:51:12;;;;;;;12.65;2.35;;;7.90;99.90;;;;;;5082056;28;20074;-58
2022/10/11 00:53:37;;;;;;;11.43;2.22;;;7.80;99.90;;;;;;5082607;28;20496;-58
2022/10/11 00:56:08;;;;;;;15.43;2.28;;;7.80;99.90;;;;;;5081985;28;20112;-58
2022/10/11 00:58:35;;;;;;;14.60;2.53;;;7.70;99.90;;;;;;5081417;28;20080;-58
2022/10/11 01:01:02;;;;;;;11.73;2.13;;;7.80;99.90;;;;;;5061990;28;20558;-58
2022/10/11 01:03:31;;;;;;;12.20;2.15;;;7.70;99.90;;;;;;5062148;28;20095;-58
2022/10/11 01:05:57;;;;;;;10.45;2.10;;;7.80;99.90;;;;;;5062282;28;20043;-58
2022/10/11 01:08:23;;;;;;;14.50;2.42;;;7.70;99.90;;;;;;5059960;28;20073;-58
2022/10/11 01:10:50;;;;;;;16.27;3.53;;;7.60;99.90;;;;;;5060633;28;20044;-59
2022/10/11 01:13:38;;;;;;;13.95;2.30;;;7.70;99.90;;;;;;5061982;28;20045;-58
2022/10/11 01:16:11;;;;;;;15.48;3.45;;;7.60;99.90;;;;;;5062046;28;20049;-58
2022/10/11 01:18:58;;;;;;;13.15;2.28;;;7.70;99.90;;;;;;5062335;28;20044;-58
2022/10/11 01:21:57;;;;;;;20.33;2.85;;;7.80;99.90;;;;;;5061559;28;20033;-58
2022/10/11 01:24:41;;;;;;;9.68;2.08;;;7.80;99.90;;;;;;5062326;28;20048;-58
2022/10/11 01:27:19;;;;;;;16.50;2.67;;;7.70;99.90;;;;;;5062143;28;20037;-58
2022/10/11 01:30:00;;;;;;;17.10;2.53;;;7.60;99.90;;;;;;5061328;28;20059;-58
2022/10/11 01:32:28;;;;;;;12.77;2.38;;;7.60;99.90;;;;;;5061760;28;20052;-58
2022/10/11 01:35:02;;;;;;;14.77;2.42;;;7.60;99.90;;;;;;5061597;28;20064;-58
2022/10/11 01:37:37;;;;;;;16.60;2.35;;;7.60;99.90;;;;;;5060257;28;20102;-58
2022/10/11 01:40:28;;;;;;;12.18;2.58;;;7.70;99.90;;;;;;5072152;28;20102;-58
2022/10/11 01:42:56;;;;;;;12.60;2.20;;;7.60;99.90;;;;;;5081349;28;20048;-58
2022/10/11 01:45:22;;;;;;;14.10;2.45;;;7.60;99.90;;;;;;5081622;28;20052;-58
2022/10/11 01:48:01;;;;;;;9.85;2.30;;;7.60;99.90;;;;;;5081398;28;20048;-57
2022/10/11 01:50:56;;;;;;;16.75;3.13;;;7.70;99.90;;;;;;5081261;28;20033;-56
2022/10/11 01:53:59;;;;;;;14.32;3.85;;;7.60;99.90;;;;;;5080570;28;20049;-58
2022/10/11 01:56:49;;;;;;;12.93;2.65;;;7.60;99.90;;;;;;5081034;28;20401;-57
2022/10/11 01:59:33;;;;;;;13.48;2.10;;;7.60;99.90;;;;;;5074259;28;20056;-58
2022/10/11 02:02:28;;;;;;;14.55;2.63;;;7.60;99.90;;;;;;5061033;28;20612;-57
2022/10/11 02:05:17;;;;;;;14.00;2.80;;;7.70;99.90;;;;;;5060936;28;20068;-56
2022/10/11 02:07:55;;;;;;;20.98;3.55;;;7.70;99.90;;;;;;5056397;28;20731;-58
2022/10/11 02:10:48;;;;;;;11.82;1.98;;;7.60;99.90;;;;;;5061357;28;20053;-58
2022/10/11 02:13:20;;;;;;;16.23;1.98;;;7.60;99.90;;;;;;5060635;28;20044;-57
2022/10/11 02:15:48;;;;;;;15.82;3.10;;;7.60;99.90;;;;;;5061244;28;20480;-58
2022/10/11 02:18:20;;;;;;;13.77;2.50;;;7.70;99.90;;;;;;5060915;28;20101;-58
2022/10/11 02:20:48;;;;;;;15.32;2.55;;;7.60;99.90;;;;;;5060629;28;20056;-58
2022/10/11 02:23:20;;;;;;;10.60;2.45;;;7.50;99.90;;;;;;5061184;28;20037;-58
2022/10/11 02:25:47;;;;;;;12.60;2.67;;;7.50;99.90;;;;;;5060202;28;20092;-58
2022/10/11 02:28:17;;;;;;;15.38;2.03;;;7.70;99.90;;;;;;5061028;28;20052;-57
2022/10/11 02:30:46;;;;;;;13.07;1.75;;;7.70;99.90;;;;;;5058727;28;20044;-58
2022/10/11 02:33:16;;;;;;;10.02;2.05;;;7.70;99.90;;;;;;5060404;28;20045;-55
2022/10/11 02:35:46;;;;;;;9.52;1.73;;;7.50;99.90;;;;;;5060847;28;20110;-58
2022/10/11 02:38:20;;;;;;;14.93;2.17;;;7.60;99.90;;;;;;5059574;28;20041;-58
2022/10/11 02:40:49;;;;;;;13.23;2.42;;;7.50;99.90;;;;;;5075638;28;20429;-58
2022/10/11 02:43:29;;;;;;;16.88;2.30;;;7.40;99.90;;;;;;5079951;28;20052;-57
2022/10/11 02:45:57;;;;;;;13.63;2.15;;;7.50;99.90;;;;;;5080892;28;20054;-58
2022/10/11 02:48:26;;;;;;;12.00;1.90;;;7.60;99.90;;;;;;5079937;28;20599;-57
2022/10/11 02:50:54;;;;;;;13.02;1.80;;;7.60;99.90;;;;;;5079801;28;20131;-58
2022/10/11 02:53:21;;;;;;;13.75;2.30;;;7.50;99.90;;;;;;5080663;28;20048;-58
2022/10/11 02:55:48;;;;;;;11.80;1.80;;;7.50;99.90;;;;;;5079369;28;20044;-58
2022/10/11 02:58:14;;;;;;;10.35;1.48;;;7.50;99.90;;;;;;5080303;28;20080;-58
2022/10/11 03:00:39;;;;;;;19.58;2.15;;;7.50;99.90;;;;;;5061053;28;20052;-57
2022/10/11 03:03:05;;;;;;;12.80;2.17;;;7.50;99.90;;;;;;5060338;28;20098;-57
2022/10/11 03:05:35;;;;;;;10.63;2.10;;;7.40;99.90;;;;;;5059748;28;20045;-58
2022/10/11 03:08:01;;;;;;;9.45;2.15;;;7.40;99.90;;;;;;5059055;28;20053;-58
2022/10/11 03:10:27;;;;;;;10.63;1.77;;;7.40;99.90;;;;;;5060269;28;20077;-59
2022/10/11 03:12:53;;;;;;;9.60;2.03;;;7.20;99.90;;;;;;5058273;28;20041;-59
2022/10/11 03:15:18;;;;;;;10.80;2.08;;;7.30;99.90;;;;;;5060209;28;20037;-58
2022/10/11 03:17:44;;;;;;;14.32;2.38;;;7.30;99.90;;;;;;5058946;28;20128;-59
2022/10/11 03:20:10;;;;;;;9.98;1.70;;;7.20;99.90;;;;;;5060271;28;20081;-59
2022/10/11 03:22:35;;;;;;;14.55;2.00;;;7.30;99.90;;;;;;5058296;28;20053;-59
2022/10/11 03:25:01;;;;;;;13.30;2.25;;;7.30;99.90;;;;;;5059362;28;20037;-58
2022/10/11 03:27:27;;;;;;;14.77;2.80;;;7.30;99.90;;;;;;5059640;28;20048;-58
2022/10/11 03:29:52;;;;;;;15.18;1.88;;;7.30;99.90;;;;;;5059006;28;20052;-58
2022/10/11 03:32:18;;;;;;;18.52;3.08;;;7.30;99.90;;;;;;5058438;28;20047;-58
2022/10/11 03:34:44;;;;;;;11.50;2.45;;;7.20;99.90;;;;;;5058919;28;20090;-58
2022/10/11 03:37:09;;;;;;;14.98;2.88;;;7.30;99.90;;;;;;5059740;28;20041;-58
2022/10/11 03:39:36;;;;;;;11.07;2.15;;;7.30;99.90;;;;;;5065693;28;20044;-57
2022/10/11 03:42:02;;;;;;;15.43;2.03;;;7.20;99.90;;;;;;5079501;28;20416;-58
2022/10/11 03:44:28;;;;;;;11.82;2.42;;;7.20;99.90;;;;;;5079545;28;20044;-57
2022/10/11 03:46:53;;;;;;;12.10;1.90;;;7.20;99.90;;;;;;5078648;28;20072;-58
2022/10/11 03:49:19;;;;;;;14.10;2.40;;;7.30;99.90;;;;;;5079190;28;20047;-58
2022/10/11 03:51:44;;;;;;;15.60;2.38;;;7.40;99.90;;;;;;5079003;28;20043;-58
2022/10/11 03:54:10;;;;;;;13.40;2.05;;;7.30;99.90;;;;;;5079242;28;20056;-58
2022/10/11 03:56:36;;;;;;;14.60;2.20;;;7.30;99.90;;;;;;5078756;28;20048;-58
2022/10/11 03:59:01;;;;;;;14.40;2.28;;;7.30;99.90;;;;;;5074416;28;20506;-56
2022/10/11 04:01:27;;;;;;;12.98;2.25;;;7.30;99.90;;;;;;5059081;28;20056;-56
2022/10/11 04:03:56;;;;;;;13.98;2.30;;;7.40;99.90;;;;;;5058572;28;20041;-58
2022/10/11 04:06:22;;;;;;;14.15;2.03;;;7.30;99.90;;;;;;5058956;28;20513;-58
2022/10/11 04:08:48;;;;;;;13.70;2.00;;;7.40;99.90;;;;;;5058926;28;20075;-58
2022/10/11 04:11:13;;;;;;;9.40;2.15;;;7.30;99.90;;;;;;5058728;28;20045;-58
2022/10/11 04:13:39;;;;;;;8.55;1.90;;;7.30;99.90;;;;;;5058233;28;20211;-56
2022/10/11 04:16:05;;;;;;;8.77;1.98;;;7.30;99.90;;;;;;5059003;28;20082;-58
2022/10/11 04:18:31;;;;;;;12.82;1.90;;;7.20;99.90;;;;;;5058780;28;20069;-58
2022/10/11 04:20:56;;;;;;;10.52;2.15;;;7.20;99.90;;;;;;5058489;28;20448;-58
2022/10/11 04:23:22;;;;;;;12.50;2.63;;;7.10;99.90;;;;;;5059540;28;20139;-58
2022/10/11 04:25:48;;;;;;;17.40;2.97;;;7.10;99.90;;;;;;5062609;28;20048;-57
2022/10/11 04:28:14;;;;;;;13.13;2.60;;;7.10;99.90;;;;;;5062929;28;20106;-58
2022/10/11 04:30:39;;;;;;;10.90;1.83;;;7.10;99.90;;;;;;5062603;28;20100;-57
2022/10/11 04:33:05;;;;;;;9.25;1.85;;;7.00;99.90;;;;;;5062930;28;20041;-57
2022/10/11 04:35:31;;;;;;;14.77;2.60;;;7.10;99.90;;;;;;5062652;28;20415;-59
2022/10/11 04:37:56;;;;;;;16.27;2.33;;;7.10;99.90;;;;;;5062310;28;20494;-60
2022/10/11 04:40:22;;;;;;;10.48;2.40;;;7.00;99.90;;;;;;5075782;28;20100;-58
2022/10/11 04:42:49;;;;;;;10.88;2.22;;;6.90;99.90;;;;;;5082337;28;20088;-58
2022/10/11 04:45:15;;;;;;;13.07;2.47;;;6.90;99.90;;;;;;5082742;28;20211;-58
2022/10/11 04:47:41;;;;;;;9.60;2.92;;;6.80;99.90;;;;;;5082379;28;20370;-57
2022/10/11 04:50:07;;;;;;;9.85;2.25;;;6.90;99.90;;;;;;5081283;28;20047;-58
2022/10/11 04:52:32;;;;;;;11.63;2.80;;;7.00;99.90;;;;;;5082345;28;20051;-57
2022/10/11 04:54:58;;;;;;;12.18;2.38;;;7.00;99.90;;;;;;5080400;28;20131;-58
2022/10/11 04:57:23;;;;;;;12.85;2.95;;;7.00;99.90;;;;;;5082877;28;20465;-58
2022/10/11 04:59:49;;;;;;;11.05;2.30;;;7.00;99.90;;;;;;5070167;28;20521;-58
2022/10/11 05:02:15;;;;;;;11.02;2.20;;;7.00;99.90;;;;;;5062575;28;20045;-58
2022/10/11 05:04:41;;;;;;;15.98;2.38;;;7.00;99.90;;;;;;5062147;28;20516;-58
2022/10/11 05:07:07;;;;;;;15.02;2.42;;;7.00;99.90;;;;;;5061944;28;20512;-58
2022/10/11 05:09:32;;;;;;;13.70;3.65;;;7.10;99.90;;;;;;5061859;28;20056;-58
2022/10/11 05:11:58;;;;;;;13.20;2.60;;;7.00;99.90;;;;;;5061830;28;20113;-58
2022/10/11 05:14:24;;;;;;;10.20;2.03;;;7.10;99.90;;;;;;5062394;28;20049;-58
2022/10/11 05:16:49;;;;;;;12.93;3.05;;;7.20;99.90;;;;;;5061391;28;20041;-58
2022/10/11 05:19:15;;;;;;;13.90;2.38;;;7.20;99.90;;;;;;5062369;28;20044;-58
2022/10/11 05:21:41;;;;;;;12.88;1.92;;;7.10;99.90;;;;;;5061487;28;20231;-58
2022/10/11 05:24:06;;;;;;;14.50;2.47;;;7.50;99.90;;;;;;5059775;28;20048;-58
2022/10/11 05:26:32;;;;;;;12.15;2.38;;;7.20;99.90;;;;;;5057912;28;20068;-58
2022/10/11 05:28:58;;;;;;;15.05;2.70;;;7.30;99.90;;;;;;5057924;28;20048;-58
2022/10/11 05:31:23;;;;;;;11.38;2.25;;;7.20;99.90;;;;;;5058351;28;20186;-58
2022/10/11 05:33:50;;;;;;;10.50;2.28;;;7.30;99.90;;;;;;5057381;28;20044;-59
2022/10/11 05:36:16;;;;;;;13.73;2.38;;;7.40;99.90;;;;;;5057010;28;20033;-58
2022/10/11 05:38:42;;;;;;;12.05;2.28;;;7.30;99.90;;;;;;5023141;28;20087;-58
2022/10/11 05:41:08;;;;;;;10.02;2.08;;;7.40;99.90;;;;;;5075923;28;20040;-58
2022/10/11 05:43:34;;;;;;;10.32;2.17;;;7.40;99.90;;;;;;5077643;28;20112;-57
2022/10/11 05:45:59;;;;;;;16.55;3.22;;;7.30;99.90;;;;;;5077895;28;20045;-58
2022/10/11 05:48:25;;;;;;;11.38;2.10;;;7.40;99.90;;;;;;5077601;28;20075;-58
2022/10/11 05:50:52;;;;;;;12.45;2.25;;;7.40;99.90;;;;;;5076735;28;20068;-58
2022/10/11 05:53:17;;;;;;;10.65;2.25;;;7.30;99.90;;;;;;5077220;28;20036;-59
2022/10/11 05:55:44;;;;;;;11.85;2.15;;;7.20;99.90;;;;;;5076486;28;20740;-58
2022/10/11 05:58:12;;;;;;;13.13;2.40;;;7.40;99.90;;;;;;5077051;28;20128;-59
2022/10/11 06:00:38;;;;;;;18.88;2.42;;;7.30;99.90;;;;;;5058782;28;20033;-57
2022/10/11 06:03:06;;;;;;;10.55;2.08;;;7.40;99.90;;;;;;5057829;28;20149;-58
2022/10/11 06:05:34;;;;;;;14.80;2.20;;;7.30;99.90;;;;;;5057443;28;20127;-56
2022/10/11 06:08:00;;;;;;;9.65;2.25;;;7.40;99.90;;;;;;5056616;28;20049;-58
2022/10/11 06:10:25;;;;;;;11.77;2.75;;;7.40;99.90;;;;;;5057392;28;20179;-58
2022/10/11 06:12:51;;;;;;;19.15;3.20;;;7.40;99.90;;;;;;5056564;28;20080;-58
2022/10/11 06:15:17;;;;;;;12.93;3.28;;;7.50;99.90;;;;;;5057674;28;20040;-58
2022/10/11 06:17:43;;;;;;;17.95;3.55;;;7.40;99.90;;;;;;5056563;28;20045;-58
2022/10/11 06:20:09;;;;;;;13.52;2.55;;;7.50;99.90;;;;;;5057360;28;20169;-58
2022/10/11 06:22:35;;;;;;;14.43;2.80;;;7.40;99.90;;;;;;5057264;28;20041;-58
2022/10/11 06:25:01;;;;;;;12.15;2.75;;;7.40;99.90;;;;;;5056346;28;20049;-58
2022/10/11 06:27:26;;;;;;;13.18;2.60;;;7.40;99.90;;;;;;5057407;28;20049;-58
2022/10/11 06:29:52;;;;;;;13.68;2.15;;;7.40;99.90;;;;;;5056507;28;20045;-58
2022/10/11 06:32:18;;;;;;;15.43;2.70;;;7.50;99.90;;;;;;5057344;28;20067;-58
2022/10/11 06:34:43;;;;;;;11.18;2.20;;;7.40;99.90;;;;;;5054987;28;20457;-57
2022/10/11 06:37:09;;;;;;;14.27;2.55;;;7.60;99.90;;;;;;5056498;28;20106;-58
2022/10/11 06:39:35;;;;;;;15.07;3.60;;;7.50;99.90;;;;;;5063034;28;20048;-58
2022/10/11 06:42:01;;;;;;;10.63;2.40;;;7.50;99.90;;;;;;5076585;28;20052;-58
2022/10/11 06:44:26;;;;;;;13.70;2.40;;;7.60;99.90;;;;;;5077103;28;20735;-58
2022/10/11 06:46:52;;;;;;;9.35;2.80;;;7.70;99.90;;;;;;5075940;28;20044;-59
2022/10/11 06:49:17;;;;;;;14.35;2.80;;;7.60;99.90;;;;;;5076413;28;20095;-58
2022/10/11 06:51:43;;;;;;;13.13;2.83;;;7.70;99.90;;;;;;5076150;28;20108;-57
2022/10/11 06:54:09;;;;;;;9.48;2.35;;;7.80;99.90;;;;;;5076956;28;20039;-58
2022/10/11 06:56:35;;;;;;;11.02;2.88;;;7.90;99.90;;;;;;5075470;28;20420;-60
2022/10/11 06:59:02;;;;;;;15.23;2.70;;;7.90;99.90;;;;;;5076066;28;20036;-59
2022/10/11 07:01:28;;;;;;;13.10;2.55;;;8.00;99.90;;;;;;5074797;28;20048;-59
2022/10/11 07:03:56;;;;;;;14.00;3.35;;;8.10;99.90;;;;;;5075545;28;20045;-59
2022/10/11 07:06:24;;;;;;;12.98;2.60;;;8.00;99.90;;;;;;5075541;28;20083;-59
2022/10/11 07:08:51;;;;;;;13.43;2.95;;;8.20;99.90;;;;;;5074902;28;20040;-60
2022/10/11 07:11:20;;;;;;;10.75;2.55;;;8.30;99.90;;;;;;5075913;28;20113;-60
2022/10/11 07:13:51;;;;;;;13.07;2.15;;;8.30;99.90;;;;;;5075292;28;20071;-58
2022/10/11 07:16:18;;;;;;;14.82;2.88;;;8.50;99.90;;;;;;5075716;28;20040;-58
2022/10/11 07:18:44;;;;;;;11.45;2.15;;;8.50;99.90;;;;;;5076382;28;20599;-58
2022/10/11 07:21:13;;;;;;;10.57;2.13;;;8.50;99.90;;;;;;5074269;28;20029;-58
2022/10/11 07:23:39;;;;;;;11.07;3.78;;;8.60;99.90;;;;;;5075661;28;20044;-58
2022/10/11 07:26:06;;;;;;;9.73;1.95;;;8.70;99.90;;;;;;5075311;28;20051;-58
2022/10/11 07:28:33;;;;;;;15.38;2.80;;;8.90;99.90;;;;;;5074478;28;20067;-58
2022/10/11 07:31:23;;;;;;;18.75;2.90;;;8.90;99.90;;;;;;5075335;28;20050;-58
2022/10/11 07:33:49;;;;;;;13.13;2.40;;;9.10;99.90;;;;;;5073931;28;20048;-58
2022/10/11 07:36:14;;;;;;;14.38;2.28;;;9.20;99.90;;;;;;5075436;28;20400;-58
2022/10/11 07:38:42;;;;;;;13.38;2.53;;;9.30;99.90;;;;;;5075215;28;20072;-58
2022/10/11 07:41:09;;;;;;;15.85;2.60;;;9.40;99.90;;;;;;5074277;28;20055;-58
2022/10/11 07:43:36;;;;;;;12.82;3.13;;;9.50;99.90;;;;;;5075427;28;20072;-59
2022/10/11 07:46:02;;;;;;;15.52;2.35;;;9.60;99.90;;;;;;5075455;28;20041;-59
2022/10/11 07:48:33;;;;;;;16.88;3.20;;;9.70;99.90;;;;;;5074350;28;20540;-58
2022/10/11 07:51:11;;;;;;;14.90;3.25;;;9.70;99.90;;;;;;5074676;28;20059;-58
2022/10/11 07:53:41;;;;;;;12.10;2.53;;;9.70;99.90;;;;;;5075736;28;20036;-58
2022/10/11 07:56:08;;;;;;;15.55;2.85;;;9.80;99.90;;;;;;5074861;28;20059;-58
2022/10/11 07:58:34;;;;;;;16.15;2.58;;;9.80;99.90;;;;;;5057210;28;20040;-59
2022/10/11 08:00:59;;;;;;;13.15;2.67;;;10.00;99.90;;;;;;5073512;28;20044;-58
2022/10/11 08:03:25;;;;;;;15.27;2.50;;;9.90;99.90;;;;;;5075268;28;20091;-59
2022/10/11 08:05:51;;;;;;;11.77;2.47;;;10.10;99.90;;;;;;5075141;28;20047;-57
2022/10/11 08:08:18;;;;;;;15.80;2.92;;;10.10;99.90;;;;;;5073989;28;20556;-58
2022/10/11 08:10:43;;;;;;;12.93;2.88;;;10.20;99.90;;;;;;5075105;28;20048;-58
2022/10/11 08:13:09;;;;;;;8.65;2.10;;;10.20;99.90;;;;;;5074050;28;20131;-58
2022/10/11 08:15:35;;;;;;;12.10;2.50;;;10.30;99.90;;;;;;5075616;28;20085;-58
2022/10/11 08:18:00;;;;;;;9.57;2.60;;;10.40;99.90;;;;;;5075241;28;20507;-58
2022/10/11 08:20:26;;;;;;;12.20;2.63;;;10.50;99.90;;;;;;5056852;28;20071;-59
2022/10/11 08:22:52;;;;;;;17.45;2.63;;;10.60;99.90;;;;;;5075603;28;20056;-57
2022/10/11 08:25:17;;;;;;;11.63;2.53;;;11.10;99.90;;;;;;5073079;28;20334;-58
2022/10/11 08:27:43;;;;;;;10.77;2.05;;;10.90;99.90;;;;;;5075217;28;20483;-59
2022/10/11 08:30:09;;;;;;;11.75;2.60;;;11.00;99.90;;;;;;5072737;28;20059;-57
2022/10/11 08:32:35;;;;;;;13.48;2.70;;;10.90;99.90;;;;;;5073081;28;20044;-58
2022/10/11 08:35:01;;;;;;;14.88;2.53;;;11.10;99.90;;;;;;5074330;28;20116;-57
2022/10/11 08:37:27;;;;;;;11.52;2.30;;;11.30;99.90;;;;;;5074284;28;20035;-58
2022/10/11 08:39:53;;;;;;;14.43;2.80;;;11.30;99.90;;;;;;5073149;28;20051;-58
2022/10/11 08:42:33;;;;;;;11.15;2.40;;;11.40;99.90;;;;;;5073999;28;20052;-58
2022/10/11 08:45:03;;;;;;;14.18;2.70;;;11.50;99.90;;;;;;5075416;28;20140;-58
2022/10/11 08:47:44;;;;;;;12.18;2.85;;;11.50;99.90;;;;;;5074430;28;20443;-58
2022/10/11 08:50:18;;;;;;;11.02;2.58;;;11.70;99.90;;;;;;5074558;28;20037;-58
2022/10/11 08:52:51;;;;;;;9.82;2.10;;;11.80;99.90;;;;;;5075208;28;20048;-58
2022/10/11 08:55:24;;;;;;;11.10;2.38;;;11.80;99.90;;;;;;5073850;28;20056;-58
2022/10/11 08:57:54;;;;;;;13.25;2.05;;;11.90;99.90;;;;;;5075573;28;20032;-58
2022/10/11 09:00:21;;;;;;;14.57;2.33;;;12.10;99.90;;;;;;5073950;28;20115;-58
2022/10/11 09:02:58;;;;;;;11.45;2.40;;;12.20;99.90;;;;;;5075180;28;20041;-59
2022/10/11 09:05:33;;;;;;;13.10;2.33;;;12.10;99.90;;;;;;5071760;28;20043;-58
2022/10/11 09:08:08;;;;;;;12.48;2.20;;;12.20;99.90;;;;;;5071692;28;20044;-58
2022/10/11 09:10:55;;;;;;;12.45;2.40;;;12.30;99.90;;;;;;5072439;28;20048;-58
2022/10/11 09:13:40;;;;;;;12.70;2.42;;;12.20;99.90;;;;;;5077614;28;20048;-57
2022/10/11 09:16:27;;;;;;;11.93;2.42;;;12.40;99.90;;;;;;5080670;28;20052;-59
2022/10/11 09:19:23;;;;;;;16.20;2.25;;;12.50;99.90;;;;;;5081859;28;20621;-59
2022/10/11 09:22:04;;;;;;;11.77;2.60;;;12.40;99.90;;;;;;5081825;28;20049;-58
2022/10/11 09:24:54;;;;;;;13.80;2.63;;;12.70;99.90;;;;;;5081045;28;20040;-58
2022/10/11 09:27:28;;;;;;;17.77;2.72;;;12.70;99.90;;;;;;5082629;28;20047;-58
2022/10/11 09:30:02;;;;;;;10.85;1.98;;;12.70;99.90;;;;;;5081629;28;20041;-58
2022/10/11 09:32:35;;;;;;;12.23;2.75;;;12.70;99.90;;;;;;5082272;28;20057;-57
2022/10/11 09:35:11;;;;;;;10.68;2.00;;;12.70;99.90;;;;;;5082016;28;20059;-58
2022/10/11 09:38:21;;;;;;;13.88;2.58;;;12.70;99.90;;;;;;5081917;28;20037;-58
2022/10/11 09:40:57;;;;;;;10.30;2.15;;;12.80;99.90;;;;;;5042284;28;20125;-58
2022/10/11 09:43:23;;;;;;;12.70;2.10;;;12.80;99.90;;;;;;5058771;28;20085;-57
2022/10/11 09:45:49;;;;;;;12.93;1.90;;;12.90;99.90;;;;;;5060606;28;20049;-58
2022/10/11 09:48:39;;;;;;;17.27;2.83;;;13.00;99.90;;;;;;5061537;28;20041;-57
2022/10/11 09:51:13;;;;;;;11.45;2.33;;;13.10;99.90;;;;;;5061120;28;20056;-58
2022/10/11 09:54:04;;;;;;;15.38;1.98;;;13.00;99.90;;;;;;5061996;28;20968;-58
2022/10/11 09:56:32;;;;;;;11.60;2.17;;;13.10;99.90;;;;;;5056294;28;20056;-58
2022/10/11 09:59:08;;;;;;;15.05;2.33;;;13.20;99.90;;;;;;5065495;28;20043;-58
2022/10/11 10:01:34;;;;;;;13.68;2.03;;;13.30;99.90;;;;;;5081865;28;20621;-58
2022/10/11 10:04:10;;;;;;;14.40;2.40;;;13.30;99.90;;;;;;5081030;28;20076;-58
2022/10/11 10:06:36;;;;;;;17.67;2.97;;;13.30;99.90;;;;;;5081555;28;20049;-56
2022/10/11 10:09:26;;;;;;;12.98;2.05;;;13.20;99.90;;;;;;5080643;28;20063;-56
2022/10/11 10:11:53;;;;;;;9.35;2.15;;;13.40;99.90;;;;;;5081024;28;20043;-55
2022/10/11 10:14:29;;;;;;;12.18;2.42;;;13.40;99.90;;;;;;5081567;28;20094;-57
2022/10/11 10:17:05;;;;;;;9.23;1.75;;;13.50;99.90;;;;;;5080728;28;20295;-57
2022/10/11 10:19:40;;;;;;;11.57;2.47;;;13.60;99.90;;;;;;5079821;28;20044;-57
2022/10/11 10:22:17;;;;;;;12.25;2.00;;;13.60;99.90;;;;;;5079003;28;20059;-56
2022/10/11 10:24:43;;;;;;;10.98;2.33;;;13.80;99.90;;;;;;5079582;28;20049;-58
2022/10/11 10:27:22;;;;;;;11.07;2.47;;;13.90;99.90;;;;;;5080638;28;20055;-56
2022/10/11 10:30:12;;;;;;;14.63;2.30;;;14.10;99.90;;;;;;5080227;28;20404;-57
2022/10/11 10:32:47;;;;;;;8.60;1.70;;;14.00;99.90;;;;;;5080922;28;20412;-56
2022/10/11 10:35:30;;;;;;;9.90;2.00;;;14.10;99.90;;;;;;5080565;28;20047;-57
2022/10/11 10:38:04;;;;;;;13.38;2.35;;;14.20;99.90;;;;;;5078716;28;20052;-57
2022/10/11 10:40:49;;;;;;;13.38;2.15;;;14.40;99.90;;;;;;5079414;28;20040;-58
2022/10/11 10:43:24;;;;;;;11.02;1.48;;;14.50;99.90;;;;;;5079234;28;20044;-56
2022/10/11 10:46:05;;;;;;;12.88;1.80;;;14.70;99.90;;;;;;5079972;28;20059;-57
2022/10/11 10:48:41;;;;;;;11.05;2.00;;;14.80;99.90;;;;;;5079027;28;20055;-58
2022/10/11 10:51:29;;;;;;;11.13;1.83;;;14.50;99.90;;;;;;5077629;28;20056;-57
2022/10/11 10:54:27;;;;;;;13.68;1.80;;;14.40;99.90;;;;;;5078330;28;20036;-57
2022/10/11 10:56:59;;;;;;;11.98;2.17;;;14.20;99.90;;;;;;5079165;28;20037;-57
2022/10/11 10:59:48;;;;;;;16.35;2.05;;;14.10;99.90;;;;;;5077298;28;20036;-57
2022/10/11 11:02:49;;;;;;;9.73;1.98;;;14.10;99.90;;;;;;5072372;28;20078;-58
2022/10/11 11:05:52;;;;;;;8.35;1.77;;;13.90;99.90;;;;;;5050896;28;20394;-57
2022/10/11 11:08:37;;;;;;;11.90;1.92;;;13.90;99.90;;;;;;5069574;28;20052;-58
2022/10/11 11:11:28;;;;;;;13.10;2.35;;;13.90;99.90;;;;;;5079994;28;20539;-57
2022/10/11 11:14:15;;;;;;;10.40;1.38;;;13.80;99.90;;;;;;5079893;28;20051;-57
2022/10/11 11:16:54;;;;;;;10.95;1.77;;;13.70;99.90;;;;;;5077740;28;20112;-55
2022/10/11 11:19:32;;;;;;;8.95;1.40;;;13.60;99.90;;;;;;5080218;28;20102;-57
2022/10/11 11:22:05;;;;;;;12.15;1.60;;;13.60;99.90;;;;;;5079232;28;20093;-56
2022/10/11 11:25:02;;;;;;;12.85;2.03;;;13.60;99.90;;;;;;5079279;28;20041;-57
2022/10/11 11:27:44;;;;;;;11.50;1.40;;;13.60;99.90;;;;;;5077655;28;20119;-57
2022/10/11 11:30:48;;;;;;;9.13;1.67;;;13.60;99.90;;;;;;5079146;28;20048;-57
2022/10/11 11:33:46;;;;;;;9.18;1.63;;;13.60;99.90;;;;;;5078572;28;20045;-57
2022/10/11 11:36:34;;;;;;;10.20;1.45;;;13.60;99.90;;;;;;5078847;28;20044;-57
2022/10/11 11:39:10;;;;;;;9.15;1.30;;;13.40;99.90;;;;;;5078274;28;20528;-56
2022/10/11 11:41:59;;;;;;;10.68;1.58;;;13.50;99.90;;;;;;5078942;28;20119;-58
2022/10/11 11:44:36;;;;;;;10.00;2.47;;;13.40;99.90;;;;;;5079217;28;20127;-57
2022/10/11 11:47:23;;;;;;;12.73;1.65;;;13.40;99.90;;;;;;5078722;28;20072;-57
2022/10/11 11:49:58;;;;;;;8.13;1.30;;;13.30;99.90;;;;;;5079399;28;20440;-57
2022/10/11 11:52:35;;;;;;;7.90;1.50;;;13.30;99.90;;;;;;5079000;28;20044;-57
2022/10/11 11:55:07;;;;;;;10.93;2.00;;;13.50;99.90;;;;;;5078970;28;20044;-59
2022/10/11 11:57:54;;;;;;;11.00;2.72;;;13.70;99.90;;;;;;5079555;28;20123;-58
2022/10/11 12:00:23;;;;;;;12.77;1.70;;;13.80;99.90;;;;;;5062776;28;20045;-58
2022/10/11 12:03:04;;;;;;;11.70;1.63;;;14.00;99.90;;;;;;5059516;28;20128;-57
2022/10/11 12:05:32;;;;;;;8.27;1.60;;;14.20;99.90;;;;;;5059282;28;20513;-57
2022/10/11 12:07:58;;;;;;;9.20;1.90;;;14.40;99.90;;;;;;5058179;28;20053;-58
2022/10/11 12:10:37;;;;;;;12.02;1.40;;;14.40;99.90;;;;;;5057533;28;20502;-58
2022/10/11 12:13:11;;;;;;;6.68;1.52;;;14.50;99.90;;;;;;5058562;28;20048;-57
2022/10/11 12:15:37;;;;;;;9.85;1.63;;;14.70;99.90;;;;;;5058892;28;20098;-58
2022/10/11 12:18:13;;;;;;;10.40;1.60;;;14.80;99.90;;;;;;5059049;28;20065;-57
2022/10/11 12:20:40;;;;;;;11.35;1.52;;;14.80;99.90;;;;;;5057183;28;20045;-57
2022/10/11 12:23:28;;;;;;;7.72;1.35;;;14.60;99.90;;;;;;5057625;28;20045;-58
2022/10/11 12:26:26;;;;;;;7.40;1.20;;;14.30;99.90;;;;;;5058315;28;20064;-58
2022/10/11 12:29:13;;;;;;;10.05;1.63;;;14.20;99.90;;;;;;5046153;28;20053;-57
2022/10/11 12:31:39;;;;;;;9.50;2.45;;;14.10;99.90;;;;;;5059269;28;20052;-58
2022/10/11 12:34:07;;;;;;;10.13;1.55;;;14.00;99.90;;;;;;5058628;28;20041;-58
2022/10/11 12:36:45;;;;;;;7.70;1.65;;;14.00;99.90;;;;;;5066740;28;20047;-57
2022/10/11 12:39:17;;;;;;;8.32;1.60;;;13.90;99.90;;;;;;5076726;28;20243;-57
2022/10/11 12:41:46;;;;;;;;;;;13.70;99.90;;;;;;5076140;28;20040;-58
2022/10/11 12:44:18;;;;;;;10.38;1.67;;;13.70;99.90;;;;;;5077224;28;19972;-58
2022/10/11 12:46:53;;;;;;;11.68;1.95;;;13.80;99.90;;;;;;5080406;28;20048;-58
2022/10/11 12:49:36;;;;;;;6.95;1.33;;;14.00;99.90;;;;;;5083196;28;20032;-58
2022/10/11 12:52:17;;;;;;;9.13;1.60;;;14.10;99.90;;;;;;5082103;28;20048;-57
2022/10/11 12:55:07;;;;;;;10.77;1.40;;;14.30;99.90;;;;;;5082458;28;20044;-58
2022/10/11 12:58:19;;;;;;;9.65;1.52;;;14.30;99.90;;;;;;5082875;28;20070;-58
2022/10/11 13:00:51;;;;;;;10.38;1.50;;;14.30;99.90;;;;;;5063500;28;20094;-57
2022/10/11 13:03:25;;;;;;;9.77;1.42;;;14.10;99.90;;;;;;5062275;28;20052;-58
2022/10/11 13:05:55;;;;;;;7.05;1.30;;;14.20;99.90;;;;;;5062760;28;20049;-57
2022/10/11 13:08:33;;;;;;;11.13;1.58;;;14.40;99.90;;;;;;5061488;28;20139;-58
2022/10/11 13:11:08;;;;;;;10.07;1.70;;;14.40;99.90;;;;;;5060871;28;20049;-58